createdAt,value
2024-01-15T00:01:03.138Z,71.18
2024-01-15T00:03:51.714Z,71.13
2024-01-15T00:06:20.404Z,71.16
2024-01-15T00:08:48.743Z,70.95
2024-01-15T00:11:17.221Z,71.00
2024-01-15T00:13:45.565Z,71.02
2024-01-15T00:16:13.897Z,70.91
2024-01-15T00:18:42.430Z,70.99
2024-01-15T00:21:11.357Z,70.94
2024-01-15T00:23:44.778Z,70.76
2024-01-15T00:26:13.973Z,70.79
2024-01-15T00:28:42.318Z,70.54
2024-01-15T00:31:10.987Z,70.41
2024-01-15T00:33:39.778Z,70.50
2024-01-15T00:36:08.435Z,70.41
2024-01-15T00:38:36.953Z,70.52
2024-01-15T00:41:05.297Z,70.55
2024-01-15T00:43:33.570Z,70.46
2024-01-15T00:46:05.130Z,70.29
2024-01-15T00:48:33.916Z,70.39
2024-01-15T00:51:02.407Z,70.40
2024-01-15T00:53:30.830Z,70.34
2024-01-15T00:55:59.209Z,70.39
2024-01-15T00:58:28.190Z,70.50
2024-01-15T01:00:56.698Z,70.40
2024-01-15T01:03:25.229Z,70.38
2024-01-15T01:05:53.695Z,70.48
2024-01-15T01:08:22.020Z,70.56
2024-01-15T01:10:50.227Z,70.40
2024-01-15T01:13:18.753Z,70.31
2024-01-15T01:15:47.110Z,70.32
2024-01-15T01:18:15.741Z,70.18
2024-01-15T01:20:44.333Z,70.06
2024-01-15T01:23:12.987Z,70.14
2024-01-15T01:25:41.347Z,70.28
2024-01-15T01:28:10.542Z,70.21
2024-01-15T01:30:39.164Z,70.13
2024-01-15T01:33:07.635Z,70.21
2024-01-15T01:35:36.079Z,70.03
2024-01-15T01:38:04.717Z,70.12
2024-01-15T01:40:33.260Z,70.06
2024-01-15T01:43:01.552Z,70.00
2024-01-15T01:45:29.919Z,70.06
2024-01-15T01:47:58.747Z,69.87
2024-01-15T01:50:27.203Z,69.95
2024-01-15T01:52:55.498Z,69.96
2024-01-15T01:55:27.764Z,70.07
2024-01-15T01:57:56.725Z,69.94
2024-01-15T02:00:25.536Z,69.96
2024-01-15T02:02:53.911Z,70.00
2024-01-15T02:05:23.826Z,69.94
2024-01-15T02:07:52.335Z,70.12
2024-01-15T02:10:20.651Z,70.02
2024-01-15T02:12:49.945Z,70.02
2024-01-15T02:15:18.590Z,70.17
2024-01-15T02:18:04.859Z,70.11
2024-01-15T02:20:33.530Z,70.26
2024-01-15T02:23:14.502Z,70.31
2024-01-15T02:25:47.445Z,70.46
2024-01-15T02:28:19.177Z,70.54
2024-01-15T02:30:48.095Z,70.63
2024-01-15T02:33:16.768Z,70.67
2024-01-15T02:35:47.469Z,70.64
2024-01-15T02:38:15.759Z,70.76
2024-01-15T02:40:46.355Z,70.78
2024-01-15T02:43:15.218Z,70.74
2024-01-15T02:45:43.458Z,70.94
2024-01-15T02:48:11.997Z,70.85
2024-01-15T02:50:40.386Z,70.93
2024-01-15T02:53:09.032Z,71.04
2024-01-15T02:55:37.392Z,71.07
2024-01-15T02:58:05.707Z,71.19
2024-01-15T03:00:34.080Z,71.38
2024-01-15T03:03:02.454Z,71.32
2024-01-15T03:05:30.712Z,71.45
2024-01-15T03:07:59.341Z,71.55
2024-01-15T03:10:27.850Z,71.51
2024-01-15T03:12:56.175Z,71.68
2024-01-15T03:15:24.777Z,71.79
2024-01-15T03:17:53.330Z,71.89
2024-01-15T03:20:21.733Z,71.92
2024-01-15T03:22:50.433Z,71.98
2024-01-15T03:25:18.644Z,72.01
2024-01-15T03:27:47.163Z,72.13
2024-01-15T03:30:15.672Z,72.13
2024-01-15T03:32:44.379Z,72.25
2024-01-15T03:35:12.837Z,72.48
2024-01-15T03:37:41.271Z,72.34
2024-01-15T03:40:10.440Z,72.65
2024-01-15T03:42:38.758Z,72.64
2024-01-15T03:45:07.380Z,72.59
2024-01-15T03:47:35.716Z,72.78
2024-01-15T03:50:04.271Z,72.87
2024-01-15T03:52:32.608Z,73.00
2024-01-15T03:55:00.985Z,72.99
2024-01-15T03:57:29.498Z,73.04
2024-01-15T03:59:57.777Z,73.16
2024-01-15T04:02:26.153Z,73.25
2024-01-15T04:04:54.408Z,73.22
2024-01-15T04:07:22.749Z,73.22
2024-01-15T04:09:51.116Z,73.46
2024-01-15T04:12:19.589Z,73.63
2024-01-15T04:14:47.867Z,73.57
2024-01-15T04:17:16.168Z,73.50
2024-01-15T04:19:49.285Z,73.58
2024-01-15T04:22:17.854Z,73.81
2024-01-15T04:24:46.378Z,73.66
2024-01-15T04:27:15.128Z,73.80
2024-01-15T04:29:45.663Z,73.78
2024-01-15T04:32:14.041Z,73.96
2024-01-15T04:34:45.297Z,73.85
2024-01-15T04:37:15.217Z,74.12
2024-01-15T04:39:43.492Z,73.97
2024-01-15T04:42:11.832Z,74.03
2024-01-15T04:44:40.416Z,74.19
2024-01-15T04:47:08.715Z,74.15
2024-01-15T04:49:37.024Z,74.17
2024-01-15T04:52:05.769Z,74.02
2024-01-15T04:54:34.080Z,74.27
2024-01-15T04:57:02.378Z,74.25
2024-01-15T04:59:30.597Z,74.34
2024-01-15T05:01:58.972Z,74.23
2024-01-15T05:04:27.391Z,74.28
2024-01-15T05:06:56.650Z,74.42
2024-01-15T05:09:25.287Z,74.21
2024-01-15T05:11:53.620Z,74.38
2024-01-15T05:14:21.893Z,74.30
2024-01-15T05:16:50.935Z,74.18
2024-01-15T05:19:19.885Z,74.41
2024-01-15T05:21:48.706Z,74.19
2024-01-15T05:24:17.142Z,74.10
2024-01-15T05:26:45.659Z,73.98
2024-01-15T05:29:14.327Z,73.87
2024-01-15T05:31:43.383Z,73.75
2024-01-15T05:34:12.952Z,73.70
2024-01-15T05:36:41.305Z,73.73
2024-01-15T05:39:09.884Z,73.73
2024-01-15T05:41:39.051Z,73.81
2024-01-15T05:44:07.644Z,73.69
2024-01-15T05:46:35.925Z,73.69
2024-01-15T05:49:04.373Z,73.59
2024-01-15T05:51:32.833Z,73.39
2024-01-15T05:54:01.088Z,73.40
2024-01-15T05:56:29.417Z,73.29
2024-01-15T05:58:57.885Z,73.21
2024-01-15T06:01:26.588Z,73.21
2024-01-15T06:03:55.018Z,73.11
2024-01-15T06:06:23.681Z,73.10
2024-01-15T06:08:51.935Z,73.04
2024-01-15T06:11:20.252Z,72.93
2024-01-15T06:13:48.469Z,72.82
2024-01-15T06:16:23.826Z,72.70
2024-01-15T06:18:52.197Z,72.52
2024-01-15T06:21:21.319Z,72.47
2024-01-15T06:23:49.815Z,72.51
2024-01-15T06:26:18.166Z,72.58
2024-01-15T06:28:46.584Z,72.54
2024-01-15T06:31:15.097Z,72.45
2024-01-15T06:33:44.116Z,72.15
2024-01-15T06:36:12.806Z,72.38
2024-01-15T06:38:41.271Z,72.21
2024-01-15T06:41:09.655Z,72.19
2024-01-15T06:43:38.093Z,72.18
2024-01-15T06:46:07.968Z,72.08
2024-01-15T06:48:37.220Z,72.07
2024-01-15T06:51:05.894Z,72.12
2024-01-15T06:53:34.148Z,72.11
2024-01-15T06:56:02.498Z,71.94
2024-01-15T06:58:32.345Z,71.96
2024-01-15T07:01:01.484Z,72.05
2024-01-15T07:03:30.155Z,72.12
2024-01-15T07:05:58.791Z,71.97
2024-01-15T07:08:27.904Z,72.04
2024-01-15T07:10:56.136Z,72.26
2024-01-15T07:13:24.509Z,72.20
2024-01-15T07:15:53.122Z,72.31
2024-01-15T07:18:21.713Z,72.25
2024-01-15T07:20:50.296Z,72.24
2024-01-15T07:23:18.745Z,72.26
2024-01-15T07:25:47.125Z,72.46
2024-01-15T07:28:15.476Z,72.50
2024-01-15T07:30:44.093Z,72.62
2024-01-15T07:33:13.703Z,72.61
2024-01-15T07:35:42.585Z,72.74
2024-01-15T07:38:12.974Z,72.80
2024-01-15T07:40:41.887Z,72.54
2024-01-15T07:43:10.643Z,72.82
2024-01-15T07:45:43.778Z,72.67
2024-01-15T07:48:21.660Z,72.74
2024-01-15T07:50:50.172Z,72.85
2024-01-15T07:53:18.641Z,72.79
2024-01-15T07:55:47.271Z,72.77
2024-01-15T07:58:17.007Z,72.89
2024-01-15T08:00:45.927Z,73.06
2024-01-15T08:03:14.598Z,72.70
2024-01-15T08:05:43.553Z,72.41
2024-01-15T08:08:12.673Z,71.74
2024-01-15T08:10:41.002Z,72.04
2024-01-15T08:13:10.628Z,72.04
2024-01-15T08:15:39.242Z,71.64
2024-01-15T08:18:07.771Z,70.96
2024-01-15T08:20:36.421Z,70.58
2024-01-15T08:23:05.852Z,70.78
2024-01-15T08:25:34.117Z,71.05
2024-01-15T08:28:02.470Z,71.37
2024-01-15T08:30:30.908Z,71.72
2024-01-15T08:33:04.768Z,71.99
2024-01-15T08:35:37.081Z,71.53
2024-01-15T08:38:05.347Z,70.15
2024-01-15T08:40:33.720Z,70.25
2024-01-15T08:43:03.287Z,69.42
2024-01-15T08:45:32.397Z,68.77
2024-01-15T08:48:02.449Z,67.25
2024-01-15T08:50:30.892Z,67.93
2024-01-15T08:52:59.743Z,68.66
2024-01-15T08:55:28.262Z,68.90
2024-01-15T08:57:56.739Z,68.97
2024-01-15T09:00:25.115Z,69.09
2024-01-15T09:02:53.451Z,69.05
2024-01-15T09:05:22.806Z,69.01
2024-01-15T09:07:53.273Z,69.32
2024-01-15T09:10:21.752Z,69.81
2024-01-15T09:12:53.100Z,70.34
2024-01-15T09:15:23.162Z,69.80
2024-01-15T09:17:51.695Z,69.86
2024-01-15T09:20:20.052Z,69.76
2024-01-15T09:22:48.315Z,69.42
2024-01-15T09:25:16.701Z,69.42
2024-01-15T09:27:48.240Z,68.68
2024-01-15T09:30:17.031Z,68.26
2024-01-15T09:32:45.404Z,68.09
2024-01-15T09:35:13.824Z,67.59
2024-01-15T09:37:47.490Z,66.84
2024-01-15T09:40:17.621Z,66.18
2024-01-15T09:42:47.631Z,66.01
2024-01-15T09:45:16.819Z,65.61
2024-01-15T09:47:46.822Z,66.17
2024-01-15T09:50:18.644Z,66.80
2024-01-15T09:52:48.145Z,67.25
2024-01-15T09:55:17.623Z,67.57
2024-01-15T09:57:47.671Z,67.00
2024-01-15T10:00:19.524Z,66.45
2024-01-15T10:02:48.149Z,65.92
2024-01-15T10:05:17.400Z,66.00
2024-01-15T10:07:47.167Z,66.28
2024-01-15T10:10:15.647Z,66.89
2024-01-15T10:12:43.925Z,65.27
2024-01-15T10:15:13.387Z,64.94
2024-01-15T10:17:43.021Z,66.95
2024-01-15T10:20:12.860Z,65.56
2024-01-15T10:22:45.154Z,64.04
2024-01-15T10:25:15.286Z,63.84
2024-01-15T10:27:43.620Z,61.93
2024-01-15T10:30:14.731Z,61.95
2024-01-15T10:32:43.313Z,60.62
2024-01-15T10:35:12.373Z,60.04
2024-01-15T10:37:42.947Z,60.47
2024-01-15T10:40:11.695Z,60.37
2024-01-15T10:42:40.113Z,61.20
2024-01-15T10:45:10.389Z,61.81
2024-01-15T10:47:39.410Z,62.21
2024-01-15T10:50:08.887Z,62.45
2024-01-15T10:52:38.829Z,63.08
2024-01-15T10:55:14.612Z,63.66
2024-01-15T10:57:47.311Z,64.20
2024-01-15T11:00:16.610Z,64.49
2024-01-15T11:02:46.190Z,65.01
2024-01-15T11:05:14.829Z,65.26
2024-01-15T11:07:44.158Z,64.96
2024-01-15T11:10:42.626Z,65.12
2024-01-15T11:13:15.313Z,65.25
2024-01-15T11:16:02.229Z,65.31
2024-01-15T11:18:33.350Z,65.18
2024-01-15T11:21:17.401Z,65.27
2024-01-15T11:23:58.385Z,65.42
2024-01-15T11:26:32.909Z,65.36
2024-01-15T11:29:04.864Z,65.44
2024-01-15T11:31:48.731Z,65.47
2024-01-15T11:34:17.392Z,65.61
2024-01-15T11:36:55.258Z,65.55
2024-01-15T11:39:33.564Z,65.74
2024-01-15T11:42:04.660Z,65.88
2024-01-15T11:44:32.971Z,65.80
2024-01-15T11:47:04.094Z,65.86
2024-01-15T11:49:51.054Z,65.88
2024-01-15T11:52:22.300Z,65.87
2024-01-15T11:55:02.723Z,65.61
2024-01-15T11:57:41.460Z,65.50
2024-01-15T12:00:13.497Z,65.46
2024-01-15T12:02:45.646Z,65.18
2024-01-15T12:05:18.753Z,65.39
2024-01-15T12:07:51.403Z,65.35
2024-01-15T12:10:21.950Z,65.07
2024-01-15T12:12:53.238Z,64.90
2024-01-15T12:15:21.654Z,65.09
2024-01-15T12:17:50.516Z,65.11
2024-01-15T12:20:19.639Z,65.28
2024-01-15T12:22:56.961Z,65.34
2024-01-15T12:25:30.952Z,65.46
2024-01-15T12:28:01.297Z,65.43
2024-01-15T12:30:30.934Z,65.28
2024-01-15T12:33:02.185Z,65.30
2024-01-15T12:40:38.924Z,65.66
2024-01-15T12:43:08.345Z,65.80
2024-01-15T12:45:39.161Z,65.90
2024-01-15T12:48:08.284Z,65.92
2024-01-15T12:50:37.107Z,66.01
2024-01-15T12:53:05.599Z,66.00
2024-01-15T12:55:35.627Z,66.04
2024-01-15T12:58:04.413Z,66.08
2024-01-15T13:00:35.935Z,66.13
2024-01-15T13:03:05.047Z,66.23
2024-01-15T13:05:35.416Z,66.21
2024-01-15T13:08:04.734Z,66.26
2024-01-15T13:10:33.173Z,66.26
2024-01-15T13:13:01.805Z,66.03
2024-01-15T13:15:30.223Z,65.85
2024-01-15T13:17:59.019Z,65.90
2024-01-15T13:20:27.321Z,66.04
2024-01-15T13:22:56.474Z,66.21
2024-01-15T13:25:26.065Z,65.88
2024-01-15T13:27:54.583Z,66.12
2024-01-15T13:30:22.970Z,66.03
2024-01-15T13:32:51.839Z,66.13
2024-01-15T13:35:20.426Z,66.27
2024-01-15T13:37:48.807Z,66.26
2024-01-15T13:40:21.334Z,66.43
2024-01-15T13:42:50.168Z,66.68
2024-01-15T13:45:18.718Z,66.83
2024-01-15T13:47:47.332Z,67.09
2024-01-15T13:50:15.982Z,67.17
2024-01-15T13:52:44.354Z,67.38
2024-01-15T13:55:12.797Z,67.40
2024-01-15T13:57:41.246Z,67.45
2024-01-15T14:00:13.549Z,67.50
2024-01-15T14:02:42.649Z,67.96
2024-01-15T14:05:13.978Z,68.06
2024-01-15T14:07:45.312Z,67.87
2024-01-15T14:10:13.684Z,67.86
2024-01-15T14:12:42.826Z,68.02
2024-01-15T14:15:11.211Z,67.90
2024-01-15T14:17:39.752Z,68.06
2024-01-15T14:20:10.897Z,68.11
2024-01-15T14:22:39.484Z,68.18
2024-01-15T14:25:08.826Z,68.40
2024-01-15T14:27:37.695Z,68.37
2024-01-15T14:30:08.695Z,68.31
2024-01-15T14:32:37.549Z,68.16
2024-01-15T14:35:07.195Z,68.30
2024-01-15T14:37:35.727Z,68.25
2024-01-15T14:40:05.380Z,68.31
2024-01-15T14:42:33.869Z,68.40
2024-01-15T14:45:04.678Z,68.40
2024-01-15T14:47:37.901Z,68.32
2024-01-15T14:50:11.331Z,68.41
2024-01-15T14:52:43.639Z,68.37
2024-01-15T14:55:12.723Z,68.39
2024-01-15T14:57:41.619Z,68.27
2024-01-15T15:00:10.360Z,68.32
2024-01-15T15:02:38.948Z,68.37
2024-01-15T15:05:08.280Z,68.23
2024-01-15T15:07:37.562Z,68.22
2024-01-15T15:10:08.005Z,68.29
2024-01-15T15:12:36.863Z,68.31
2024-01-15T15:30:24.232Z,68.21
2024-01-15T15:32:53.843Z,68.24
2024-01-15T15:35:23.219Z,68.16
2024-01-15T15:37:52.414Z,68.14
2024-01-15T15:40:21.599Z,68.02
2024-01-15T15:42:49.968Z,68.22
2024-01-15T15:45:18.338Z,68.05
2024-01-15T15:47:47.049Z,68.00
2024-01-15T15:50:15.706Z,67.78
2024-01-15T15:52:44.527Z,67.92
2024-01-15T15:55:12.946Z,67.85
2024-01-15T15:57:41.661Z,67.83
2024-01-15T16:00:10.592Z,67.88
2024-01-15T16:02:41.884Z,67.84
2024-01-15T16:05:11.427Z,67.70
2024-01-15T16:07:40.132Z,67.60
2024-01-15T16:10:09.028Z,67.53
2024-01-15T16:12:37.561Z,67.63
2024-01-15T16:15:19.038Z,67.53
2024-01-15T16:23:17.426Z,67.52
2024-01-15T16:23:32.075Z,67.56
2024-01-15T16:24:05.191Z,67.58
2024-01-15T16:26:18.255Z,67.52
2024-01-15T16:28:47.088Z,67.59
2024-01-15T16:31:15.599Z,67.48
2024-01-15T16:33:47.855Z,67.55
2024-01-15T16:36:21.796Z,67.60
2024-01-15T16:38:50.400Z,67.45
2024-01-15T16:41:19.069Z,67.60
2024-01-15T16:43:49.244Z,67.53
2024-01-15T16:46:17.921Z,67.39
2024-01-15T16:48:46.272Z,67.24
2024-01-15T16:52:08.264Z,67.46
2024-01-15T16:54:36.974Z,67.40
2024-01-15T16:57:05.370Z,67.53
2024-01-15T16:59:35.862Z,67.64
2024-01-15T17:02:04.741Z,67.73
2024-01-15T17:04:33.074Z,67.55
2024-01-15T17:18:27.717Z,67.66
2024-01-15T17:20:56.372Z,67.68
2024-01-15T17:23:24.713Z,67.71
2024-01-15T17:25:53.297Z,67.80
2024-01-15T17:28:24.473Z,67.77
2024-01-15T17:30:53.689Z,67.76
2024-01-15T17:33:22.073Z,67.87
2024-01-15T17:35:55.396Z,67.84
2024-01-15T17:38:25.192Z,67.91
2024-01-15T17:40:53.609Z,67.87
2024-01-15T17:43:21.899Z,67.94
2024-01-15T17:45:50.492Z,67.78
2024-01-15T17:48:18.957Z,67.98
2024-01-15T17:50:47.690Z,67.97
2024-01-15T17:53:16.601Z,67.94
2024-01-15T17:55:45.223Z,68.10
2024-01-15T17:58:13.491Z,68.19
2024-01-15T18:00:42.489Z,68.14
2024-01-15T18:03:10.855Z,68.16
2024-01-15T18:05:39.667Z,68.05
2024-01-15T18:08:08.257Z,68.00
2024-01-15T18:10:36.572Z,68.03
2024-01-15T18:13:06.603Z,68.02
2024-01-15T18:15:35.270Z,68.04
2024-01-15T18:18:05.058Z,67.97
2024-01-15T18:20:33.767Z,67.89
2024-01-15T18:23:02.304Z,67.82
2024-01-15T18:25:31.692Z,67.92
2024-01-15T18:28:00.728Z,67.73
2024-01-15T18:30:29.215Z,67.69
2024-01-15T18:32:57.590Z,67.72
2024-01-15T18:35:27.454Z,67.70
2024-01-15T18:37:56.114Z,67.54
2024-01-15T18:40:24.886Z,67.73
2024-01-15T18:42:53.141Z,67.49
2024-01-15T18:45:21.473Z,67.74
2024-01-15T18:47:49.771Z,67.60
2024-01-15T18:50:19.251Z,67.82
2024-01-15T18:52:48.217Z,67.73
2024-01-15T18:55:18.551Z,67.52
2024-01-15T18:57:47.179Z,67.62
2024-01-15T19:00:16.675Z,67.41
2024-01-15T19:17:51.435Z,67.58
2024-01-15T19:20:19.910Z,67.43
2024-01-15T19:22:48.551Z,67.39
2024-01-15T19:25:17.150Z,67.47
2024-01-15T19:27:47.431Z,67.31
2024-01-15T19:30:17.441Z,67.20
2024-01-15T19:32:46.758Z,67.29
2024-01-15T19:35:15.817Z,67.31
2024-01-15T19:37:44.381Z,67.18
2024-01-15T19:40:13.199Z,67.15
2024-01-15T19:42:41.787Z,67.12
2024-01-15T19:45:10.374Z,67.19
2024-01-15T19:47:41.492Z,67.24
2024-01-15T19:50:10.401Z,67.19
2024-01-15T19:52:38.944Z,67.20
2024-01-15T19:55:07.738Z,66.90
2024-01-15T19:57:36.079Z,66.91
2024-01-15T20:00:05.296Z,66.87
2024-01-15T20:02:34.495Z,66.88
2024-01-15T20:05:02.920Z,66.93
2024-01-15T20:07:31.656Z,66.89
2024-01-15T20:09:59.921Z,66.89
2024-01-15T20:12:28.313Z,66.94
2024-01-15T20:14:56.792Z,66.82
2024-01-15T20:17:26.342Z,66.99
2024-01-15T20:19:55.627Z,66.80
2024-01-15T20:22:24.178Z,66.85
2024-01-15T20:24:52.589Z,66.80
2024-01-15T20:27:21.310Z,66.82
2024-01-15T20:29:49.720Z,66.77
2024-01-15T20:32:19.791Z,66.95
2024-01-15T20:34:48.190Z,66.70
2024-01-15T20:37:16.852Z,66.67
2024-01-15T20:39:45.190Z,66.65
2024-01-15T20:42:13.587Z,66.79
2024-01-15T20:44:42.100Z,66.63
2024-01-15T20:47:11.640Z,66.68
2024-01-15T20:49:40.611Z,66.46
2024-01-15T20:52:09.100Z,66.54
2024-01-15T20:54:37.401Z,66.38
2024-01-15T20:57:05.691Z,66.34
2024-01-15T20:59:34.267Z,66.29
2024-01-15T21:02:02.617Z,66.20
2024-01-15T21:04:30.959Z,66.34
2024-01-15T21:07:00.252Z,66.18
2024-01-15T21:09:28.691Z,66.07
2024-01-15T21:11:56.954Z,65.95
2024-01-15T21:14:25.471Z,65.92
2024-01-15T21:16:53.852Z,65.83
2024-01-15T21:19:22.672Z,65.91
2024-01-15T21:21:51.134Z,65.86
2024-01-15T21:24:23.650Z,65.87
2024-01-15T21:26:51.895Z,65.80
2024-01-15T21:29:20.717Z,65.55
2024-01-15T21:31:49.171Z,65.64
2024-01-15T21:34:21.821Z,65.53
2024-01-15T21:36:51.249Z,65.38
2024-01-15T21:39:19.538Z,65.35
2024-01-15T21:41:48.256Z,65.30
2024-01-15T21:44:17.440Z,65.29
2024-01-15T21:46:45.735Z,65.19
2024-01-15T21:49:14.176Z,65.15
2024-01-15T21:51:42.471Z,65.26
2024-01-15T21:54:10.744Z,65.06
2024-01-15T21:56:39.260Z,65.06
2024-01-15T21:59:07.871Z,65.11
2024-01-15T22:01:36.262Z,65.10
2024-01-15T22:04:08.505Z,64.97
2024-01-15T22:06:37.260Z,64.93
2024-01-15T22:09:05.746Z,64.88
2024-01-15T22:11:34.247Z,64.77
2024-01-15T22:14:03.254Z,64.65
2024-01-15T22:16:31.886Z,64.75
2024-01-15T22:19:02.708Z,64.60
2024-01-15T22:21:31.639Z,64.44
2024-01-15T22:24:00.419Z,64.40
2024-01-15T22:26:28.887Z,64.40
2024-01-15T22:28:57.398Z,64.40
2024-01-15T22:31:25.829Z,64.23
2024-01-15T22:33:54.543Z,64.20
2024-01-15T22:36:23.165Z,64.07
2024-01-15T22:38:51.620Z,63.98
2024-01-15T22:41:19.905Z,63.98
2024-01-15T22:43:48.725Z,63.90
2024-01-15T22:46:17.332Z,63.87
2024-01-15T22:48:45.839Z,63.93
2024-01-15T22:51:14.109Z,63.87
2024-01-15T22:53:43.617Z,63.69
2024-01-15T22:56:12.260Z,63.61
2024-01-15T22:58:40.604Z,63.62
2024-01-15T23:01:09.169Z,63.51
2024-01-15T23:03:37.545Z,63.45
2024-01-15T23:06:05.973Z,63.35
2024-01-15T23:08:34.573Z,63.51
2024-01-15T23:11:03.052Z,63.39
2024-01-15T23:13:31.345Z,63.44
2024-01-15T23:15:59.611Z,63.40
2024-01-15T23:18:27.996Z,63.37
2024-01-15T23:20:56.305Z,63.41
2024-01-15T23:23:24.692Z,63.29
2024-01-15T23:25:53.249Z,63.14
2024-01-15T23:28:21.693Z,63.16
2024-01-15T23:30:49.901Z,63.12
2024-01-15T23:33:18.504Z,63.29
2024-01-15T23:35:46.904Z,63.19
2024-01-15T23:38:15.351Z,63.02
2024-01-15T23:40:43.618Z,62.96
2024-01-15T23:43:12.175Z,62.99
2024-01-15T23:45:41.861Z,62.80
2024-01-15T23:48:10.339Z,62.93
2024-01-15T23:50:38.730Z,62.85
2024-01-15T23:53:07.133Z,62.70
2024-01-15T23:55:35.808Z,62.97
2024-01-15T23:58:04.199Z,62.72
